Terminal Aerodrome Forecast
Issued by NWS

Home | Current Version | Previous Version | Text Only | Print | Product List | Glossary On
Versions: 1 2 3 4 5 6 7 8 9 10 11 12 13 14 15 16 17 18 19 20 21 22 23 24 25 26 27 28 29 30 31 32 33
000
FTUS41 KGYX 191124
TAFAUG
TAF
KAUG 191124Z 1912/2012 18009KT 4SM -RA BR OVC003 WS020/21050KT
     FM191500 19011G22KT 4SM SHRA BR OVC008
     FM191900 24014G27KT P6SM BKN025
     FM192100 27017G32KT P6SM SCT050
     FM201100 28010KT P6SM FEW250=

USA.gov is the U.S. government's official web portal to all federal, state and local government web resources and services.